Time;durP1;ratioP1;P1;durP2;ratioP2;P2;SDS_P1;SDS_P2;PMS_P1;PMS_P2;Temp;Humidity;BMP_temperature;BMP_pressure;BME280_temperature;BME280_humidity;BME280_pressure;Samples;Min_cycle;Max_cycle;Signal;HPM_P1;HPM_P2
2021/04/29 00:01:14;;;;;;;15.02;7.10;;;;;;;-146.18;100.00;67994.34;9984894;29;20048;-67
2021/04/29 00:06:10;;;;;;;10.63;5.82;;;;;;;-146.18;100.00;67994.34;9996169;29;20529;-67
2021/04/29 00:11:08;;;;;;;12.18;6.40;;;;;;;-146.18;100.00;67994.34;9993804;29;20096;-67
2021/04/29 00:16:05;;;;;;;13.40;5.78;;;;;;;-146.18;100.00;67994.34;9995150;29;20084;-67
2021/04/29 00:21:01;;;;;;;13.02;6.47;;;;;;;-146.18;100.00;67994.34;9997558;29;20048;-67
2021/04/29 00:25:57;;;;;;;8.75;5.97;;;;;;;-146.18;100.00;67994.34;9987381;29;20430;-67
2021/04/29 00:30:53;;;;;;;12.57;7.53;;;;;;;-146.18;100.00;67994.34;9991161;29;20067;-66
2021/04/29 00:35:49;;;;;;;12.85;7.15;;;;;;;-146.18;100.00;67994.34;9991926;29;20048;-66
2021/04/29 00:40:45;;;;;;;10.68;6.45;;;;;;;-146.18;100.00;67994.34;9993632;29;20060;-67
2021/04/29 00:45:42;;;;;;;13.15;7.90;;;;;;;-146.18;100.00;67994.34;9987980;29;20083;-66
2021/04/29 00:50:38;;;;;;;14.80;7.82;;;;;;;-146.18;100.00;67994.34;9993859;29;20495;-66
2021/04/29 00:55:34;;;;;;;14.25;7.65;;;;;;;-146.18;100.00;67994.34;9989283;29;20048;-67
2021/04/29 01:00:30;;;;;;;13.10;8.25;;;;;;;-146.18;100.00;67994.34;9990131;29;20111;-67
2021/04/29 01:05:34;;;;;;;13.15;7.50;;;;;;;-146.18;100.00;67994.34;9989933;29;20052;-67
2021/04/29 01:11:02;;;;;;;16.08;8.98;;;;;;;-146.18;100.00;67994.34;9969636;29;20126;-67
2021/04/29 01:15:59;;;;;;;16.25;9.52;;;;;;;-146.18;100.00;67994.34;9991778;29;20060;-68
2021/04/29 01:21:11;;;;;;;15.98;9.85;;;;;;;-146.18;100.00;67994.34;9989313;29;20048;-68
2021/04/29 01:26:37;;;;;;;21.33;11.40;;;;;;;-146.18;100.00;67994.34;9991255;29;20499;-68
2021/04/29 01:31:36;;;;;;;17.10;9.93;;;;;;;-146.18;100.00;67994.34;9989690;29;20100;-67
2021/04/29 01:36:35;;;;;;;18.15;11.25;;;;;;;-146.18;100.00;67994.34;9991099;29;20044;-67
2021/04/29 01:41:31;;;;;;;14.43;10.27;;;;;;;-146.18;100.00;67994.34;9991217;29;20044;-67
2021/04/29 01:46:29;;;;;;;18.02;11.43;;;;;;;-146.18;100.00;67994.34;9984719;29;20117;-67
2021/04/29 01:51:25;;;;;;;16.90;11.35;;;;;;;-146.18;100.00;67994.34;9990892;29;20040;-67
2021/04/29 01:56:21;;;;;;;17.67;11.43;;;;;;;-146.18;100.00;67994.34;9986363;29;20291;-67
2021/04/29 02:01:17;;;;;;;19.83;10.65;;;;;;;-146.18;100.00;67994.34;9984103;29;20108;-66
2021/04/29 02:06:13;;;;;;;17.02;12.23;;;;;;;-146.18;100.00;67994.34;9991295;29;20415;-67
2021/04/29 02:11:10;;;;;;;15.35;10.98;;;;;;;-146.18;100.00;67994.34;9986171;29;20479;-68
2021/04/29 02:16:21;;;;;;;15.40;10.93;;;;;;;-146.18;100.00;67994.34;9992237;29;20052;-68
2021/04/29 02:21:19;;;;;;;15.88;10.93;;;;;;;-146.18;100.00;67994.34;9988147;29;20067;-67
2021/04/29 02:26:18;;;;;;;18.13;13.35;;;;;;;-146.18;100.00;67994.34;9987915;29;20048;-67
2021/04/29 02:31:14;;;;;;;16.30;12.38;;;;;;;-146.18;100.00;67994.34;9984276;29;20773;-67
2021/04/29 02:36:10;;;;;;;15.57;11.00;;;;;;;-146.18;100.00;67994.34;9985278;29;20048;-67
2021/04/29 02:41:07;;;;;;;17.80;12.00;;;;;;;-146.18;100.00;67994.34;9988848;29;20455;-67
2021/04/29 02:46:03;;;;;;;16.10;11.15;;;;;;;-146.18;100.00;67994.34;9987530;29;20048;-67
2021/04/29 02:51:02;;;;;;;14.75;10.57;;;;;;;-146.18;100.00;67994.34;9986405;29;20131;-67
2021/04/29 02:56:03;;;;;;;20.15;10.75;;;;;;;-146.18;100.00;67994.34;9988905;29;20048;-69
2021/04/29 03:00:59;;;;;;;18.88;11.65;;;;;;;-146.18;100.00;67994.34;9984252;29;20135;-66
2021/04/29 03:05:56;;;;;;;16.45;11.93;;;;;;;-146.18;100.00;67994.34;9983622;29;20506;-67
2021/04/29 03:10:52;;;;;;;20.10;10.82;;;;;;;-146.18;100.00;67994.34;9992569;29;20044;-66
2021/04/29 03:15:48;;;;;;;19.45;11.52;;;;;;;-146.18;100.00;67994.34;9998489;29;20521;-68
2021/04/29 03:20:44;;;;;;;13.32;9.95;;;;;;;-146.18;100.00;67994.34;9998939;29;20582;-68
2021/04/29 03:25:40;;;;;;;18.40;12.15;;;;;;;-146.18;100.00;67994.34;9992824;29;20052;-68
2021/04/29 03:30:36;;;;;;;17.05;11.80;;;;;;;-146.18;100.00;67994.34;9991985;29;20080;-68
2021/04/29 03:35:33;;;;;;;18.75;12.50;;;;;;;-146.18;100.00;67994.34;9990199;29;20451;-68
2021/04/29 03:40:29;;;;;;;18.48;12.32;;;;;;;-146.18;100.00;67994.34;9987833;29;20111;-67
2021/04/29 03:45:25;;;;;;;15.88;11.15;;;;;;;-146.18;100.00;67994.34;9995781;29;20078;-67
2021/04/29 03:50:21;;;;;;;15.27;12.05;;;;;;;-146.18;100.00;67994.34;9996114;29;20128;-67
2021/04/29 03:55:17;;;;;;;17.65;11.80;;;;;;;-146.18;100.00;67994.34;9995570;29;20558;-67
2021/04/29 04:00:14;;;;;;;17.25;11.73;;;;;;;-146.18;100.00;67994.34;9993871;29;20426;-68
2021/04/29 04:05:11;;;;;;;15.00;11.82;;;;;;;-146.18;100.00;67994.34;9990790;29;20052;-68
2021/04/29 04:10:08;;;;;;;17.13;11.07;;;;;;;-146.18;100.00;67994.34;9989312;29;20059;-68
2021/04/29 04:15:05;;;;;;;18.60;11.82;;;;;;;-146.18;100.00;67994.34;9988256;29;20566;-67
2021/04/29 04:20:02;;;;;;;17.95;12.90;;;;;;;-146.18;100.00;67994.34;9990320;29;20056;-66
2021/04/29 04:24:58;;;;;;;18.50;10.70;;;;;;;-146.18;100.00;67994.34;9981603;29;20095;-66
2021/04/29 04:29:54;;;;;;;18.30;12.13;;;;;;;-146.18;100.00;67994.34;9976302;29;20060;-68
2021/04/29 04:34:51;;;;;;;17.58;12.95;;;;;;;-146.18;100.00;67994.34;9992955;29;20050;-67
2021/04/29 04:39:47;;;;;;;19.30;12.60;;;;;;;-146.18;100.00;67994.34;9996626;29;20119;-67
2021/04/29 04:44:43;;;;;;;17.20;12.38;;;;;;;-146.18;100.00;67994.34;9989415;29;20047;-66
2021/04/29 04:49:39;;;;;;;19.55;13.85;;;;;;;-146.18;100.00;67994.34;9985346;29;20044;-65
2021/04/29 04:54:35;;;;;;;16.55;13.45;;;;;;;-146.18;100.00;67994.34;9990384;29;20469;-65
2021/04/29 04:59:31;;;;;;;15.70;12.80;;;;;;;-146.18;100.00;67994.34;9987850;29;20523;-65
2021/04/29 05:04:28;;;;;;;18.38;12.85;;;;;;;-146.18;100.00;67994.34;9973484;29;20043;-66
2021/04/29 05:09:24;;;;;;;18.08;14.20;;;;;;;-146.18;100.00;67994.34;9981271;29;20463;-64
2021/04/29 05:14:20;;;;;;;17.05;13.13;;;;;;;-146.18;100.00;67994.34;9990856;29;20563;-67
2021/04/29 05:19:16;;;;;;;21.20;14.20;;;;;;;-146.18;100.00;67994.34;9983799;29;20051;-68
2021/04/29 05:24:12;;;;;;;17.40;13.68;;;;;;;-146.18;100.00;67994.34;9981468;29;20096;-67
2021/04/29 05:29:08;;;;;;;20.90;13.80;;;;;;;-146.18;100.00;67994.34;9984800;29;20048;-66
2021/04/29 05:34:04;;;;;;;20.10;14.07;;;;;;;-146.18;100.00;67994.34;9983556;29;20064;-66
2021/04/29 05:39:00;;;;;;;19.05;13.50;;;;;;;-146.18;100.00;67994.34;9985630;29;20530;-67
2021/04/29 05:43:56;;;;;;;20.67;15.55;;;;;;;-146.18;100.00;67994.34;9986580;29;20080;-67
2021/04/29 05:48:52;;;;;;;20.73;14.27;;;;;;;-146.18;100.00;67994.34;9978697;29;20044;-66
2021/04/29 05:53:48;;;;;;;17.90;15.23;;;;;;;-146.18;100.00;67994.34;9986913;29;20141;-67
2021/04/29 05:58:44;;;;;;;17.65;14.65;;;;;;;-146.18;100.00;67994.34;9977498;29;20040;-67
2021/04/29 06:03:40;;;;;;;18.38;14.15;;;;;;;-146.18;100.00;67994.34;9982379;29;20067;-67
2021/04/29 06:08:36;;;;;;;20.98;15.48;;;;;;;-146.18;100.00;67994.34;9987835;29;20067;-65
2021/04/29 06:13:32;;;;;;;21.02;15.25;;;;;;;-146.18;100.00;67994.34;9977253;29;20495;-67
2021/04/29 06:18:28;;;;;;;25.80;16.67;;;;;;;-146.18;100.00;67994.34;9977861;29;20064;-67
2021/04/29 06:23:25;;;;;;;20.98;15.30;;;;;;;-146.18;100.00;67994.34;9987168;29;20123;-67
2021/04/29 06:28:21;;;;;;;19.65;14.45;;;;;;;-146.18;100.00;67994.34;9979779;29;20056;-68
2021/04/29 06:33:17;;;;;;;36.42;17.35;;;;;;;-146.18;100.00;67994.34;9982376;29;20095;-68
2021/04/29 06:38:13;;;;;;;20.73;15.35;;;;;;;-146.18;100.00;67994.34;9980200;29;20049;-67
2021/04/29 06:43:09;;;;;;;29.38;17.92;;;;;;;-146.18;100.00;67994.34;9989304;29;20040;-67
2021/04/29 06:48:06;;;;;;;26.20;17.42;;;;;;;-146.18;100.00;67994.34;9985819;29;20047;-67
2021/04/29 06:53:02;;;;;;;34.63;23.83;;;;;;;-146.18;100.00;67994.34;9986961;29;20052;-67
2021/04/29 06:57:59;;;;;;;20.95;17.00;;;;;;;-146.18;100.00;67994.34;9976701;29;21495;-66
2021/04/29 07:02:56;;;;;;;20.90;16.67;;;;;;;-146.18;100.00;67994.34;9981571;29;20076;-66
2021/04/29 07:07:53;;;;;;;21.50;17.17;;;;;;;-146.18;100.00;67994.34;9967963;29;20061;-70
2021/04/29 07:12:50;;;;;;;25.92;17.65;;;;;;;-146.18;100.00;67994.34;9978948;29;20052;-65
2021/04/29 07:17:47;;;;;;;27.50;18.35;;;;;;;-146.18;100.00;67994.34;9972511;29;20533;-64
2021/04/29 07:22:44;;;;;;;22.73;17.67;;;;;;;-146.18;100.00;67994.34;9966884;29;20053;-70
2021/04/29 07:27:40;;;;;;;24.10;17.95;;;;;;;-146.18;100.00;67994.34;9977513;29;20139;-69
2021/04/29 07:32:36;;;;;;;25.05;17.83;;;;;;;-146.18;100.00;67994.34;9978079;29;20044;-67
2021/04/29 07:37:32;;;;;;;22.08;16.80;;;;;;;-146.18;100.00;67994.34;9969682;29;20048;-68
2021/04/29 07:42:28;;;;;;;23.05;18.25;;;;;;;-146.18;100.00;67994.34;9968115;29;20065;-67
2021/04/29 07:47:24;;;;;;;23.23;18.63;;;;;;;-146.18;100.00;67994.34;9976623;29;20124;-67
2021/04/29 07:52:21;;;;;;;25.98;19.45;;;;;;;-146.18;100.00;67994.34;9976699;29;20044;-68
2021/04/29 07:57:19;;;;;;;22.50;17.45;;;;;;;-146.18;100.00;67994.34;9979380;29;20054;-67
2021/04/29 08:02:15;;;;;;;20.27;16.08;;;;;;;-146.18;100.00;67994.34;9982178;29;20708;-68
2021/04/29 08:07:11;;;;;;;24.45;19.40;;;;;;;-146.18;100.00;67994.34;9994832;29;20467;-68
2021/04/29 08:12:08;;;;;;;23.85;17.35;;;;;;;-146.18;100.00;67994.34;9990156;29;20040;-67
2021/04/29 08:17:04;;;;;;;26.63;20.20;;;;;;;-146.18;100.00;67994.34;9995097;29;20526;-66
2021/04/29 08:22:03;;;;;;;22.13;18.15;;;;;;;-146.18;100.00;67994.34;9991011;29;20103;-68
2021/04/29 08:26:59;;;;;;;24.60;19.38;;;;;;;-146.18;100.00;67994.34;9992095;29;20052;-66
2021/04/29 08:31:58;;;;;;;22.27;18.23;;;;;;;-146.18;100.00;67994.34;9984645;29;20095;-67
2021/04/29 08:36:54;;;;;;;21.70;18.63;;;;;;;-146.18;100.00;67994.34;9981571;29;20060;-68
2021/04/29 08:41:50;;;;;;;24.23;16.75;;;;;;;-146.18;100.00;67994.34;9981945;29;20047;-67
2021/04/29 08:46:46;;;;;;;24.85;17.65;;;;;;;-146.18;100.00;67994.34;9989909;29;20111;-65
2021/04/29 08:51:44;;;;;;;29.05;21.17;;;;;;;-146.18;100.00;67994.34;9973289;29;20047;-66
2021/04/29 08:56:40;;;;;;;27.17;21.05;;;;;;;-146.18;100.00;67994.34;9986718;29;20127;-64
2021/04/29 09:01:41;;;;;;;18.00;13.95;;;;;;;-146.18;100.00;67994.34;9976887;29;20122;-64
2021/04/29 09:06:38;;;;;;;25.38;20.33;;;;;;;-146.18;100.00;67994.34;9980428;29;20470;-66
2021/04/29 09:11:34;;;;;;;20.98;17.13;;;;;;;-146.18;100.00;67994.34;9981866;29;20048;-67
2021/04/29 09:16:42;;;;;;;25.45;19.33;;;;;;;-146.18;100.00;67994.34;9987663;29;20048;-66
2021/04/29 09:21:38;;;;;;;25.50;20.13;;;;;;;-146.18;100.00;67994.34;9965185;29;20055;-66
2021/04/29 09:26:34;;;;;;;23.23;19.13;;;;;;;-146.18;100.00;67994.34;9981294;29;20107;-66
2021/04/29 09:31:37;;;;;;;25.48;18.98;;;;;;;-146.18;100.00;67994.34;9985137;29;20115;-67
2021/04/29 09:36:39;;;;;;;25.17;20.92;;;;;;;-146.18;100.00;67994.34;9979754;29;20191;-65
2021/04/29 09:41:37;;;;;;;24.75;20.02;;;;;;;-146.18;100.00;67994.34;9979151;29;20052;-66
2021/04/29 09:47:03;;;;;;;26.80;21.23;;;;;;;-146.18;100.00;67994.34;9971214;29;20100;-66
2021/04/29 09:52:15;;;;;;;25.00;20.90;;;;;;;-146.18;100.00;67994.34;9978105;29;20052;-66
2021/04/29 09:57:19;;;;;;;26.15;20.75;;;;;;;-146.18;100.00;67994.34;9985872;29;20048;-67
2021/04/29 10:02:17;;;;;;;23.65;20.73;;;;;;;-146.18;100.00;67994.34;9969913;29;20063;-67
2021/04/29 10:07:15;;;;;;;24.80;21.80;;;;;;;-146.18;100.00;67994.34;9974228;29;20575;-68
2021/04/29 10:12:13;;;;;;;22.55;20.10;;;;;;;-146.18;100.00;67994.34;9976621;29;20587;-66
2021/04/29 10:17:12;;;;;;;26.50;20.73;;;;;;;-146.18;100.00;67994.34;9980094;29;20060;-67
2021/04/29 10:22:10;;;;;;;27.58;22.90;;;;;;;-146.18;100.00;67994.34;9976850;29;20083;-67
2021/04/29 10:27:08;;;;;;;29.42;23.52;;;;;;;-146.18;100.00;67994.34;9974106;29;20060;-68
2021/04/29 10:32:11;;;;;;;28.00;21.40;;;;;;;-146.18;100.00;67994.34;9978764;29;20068;-67
2021/04/29 10:37:15;;;;;;;26.05;22.80;;;;;;;-146.18;100.00;67994.34;9974466;29;20478;-67
2021/04/29 10:42:13;;;;;;;27.17;21.77;;;;;;;-146.18;100.00;67994.34;9979308;29;20495;-68
2021/04/29 10:47:10;;;;;;;27.85;23.52;;;;;;;-146.18;100.00;67994.34;9973604;29;20074;-68
2021/04/29 10:52:06;;;;;;;29.02;23.25;;;;;;;-146.18;100.00;67994.34;9978191;29;20055;-67
2021/04/29 10:57:11;;;;;;;29.48;23.50;;;;;;;-146.18;100.00;67994.34;9975461;29;20506;-67
2021/04/29 11:02:39;;;;;;;29.77;22.05;;;;;;;-146.18;100.00;67994.34;9973178;29;20254;-66
2021/04/29 11:07:45;;;;;;;35.25;25.98;;;;;;;-146.18;100.00;67994.34;9928790;29;20087;-69
2021/04/29 11:12:43;;;;;;;24.02;21.38;;;;;;;-146.18;100.00;67994.34;9977290;29;20126;-68
2021/04/29 11:17:39;;;;;;;25.98;22.52;;;;;;;-146.18;100.00;67994.34;9980441;29;20068;-67
2021/04/29 11:22:37;;;;;;;27.15;20.52;;;;;;;-146.18;100.00;67994.34;9979266;29;20060;-68
2021/04/29 11:27:35;;;;;;;25.80;21.92;;;;;;;-146.18;100.00;67994.34;9974217;29;20094;-67
2021/04/29 11:32:33;;;;;;;28.60;21.45;;;;;;;-146.18;100.00;67994.34;9989408;29;20048;-67
2021/04/29 11:37:49;;;;;;;23.50;19.25;;;;;;;-146.18;100.00;67994.34;9984911;29;20134;-69
2021/04/29 11:42:54;;;;;;;24.92;21.00;;;;;;;-146.18;100.00;67994.34;9986388;29;20036;-68
2021/04/29 11:48:00;;;;;;;24.98;21.00;;;;;;;-146.18;100.00;67994.34;9980531;29;20044;-66
2021/04/29 11:53:07;;;;;;;23.50;19.58;;;;;;;-146.18;100.00;67994.34;9972884;29;20045;-66
2021/04/29 11:58:12;;;;;;;29.15;21.70;;;;;;;-146.18;100.00;67994.34;9987090;29;20051;-66
2021/04/29 12:03:11;;;;;;;25.35;21.23;;;;;;;-146.18;100.00;67994.34;9982570;29;20044;-66
2021/04/29 12:08:21;;;;;;;25.23;20.70;;;;;;;-146.18;100.00;67994.34;9979870;29;20056;-65
2021/04/29 12:13:28;;;;;;;23.88;21.15;;;;;;;-146.18;100.00;67994.34;9980824;29;20107;-68
2021/04/29 12:18:25;;;;;;;32.03;24.38;;;;;;;-146.18;100.00;67994.34;9982552;29;20044;-65
2021/04/29 12:23:21;;;;;;;26.45;23.27;;;;;;;-146.18;100.00;67994.34;9989114;29;20048;-66
2021/04/29 12:28:18;;;;;;;36.13;28.20;;;;;;;-146.18;100.00;67994.34;9992400;29;20056;-65
2021/04/29 12:33:21;;;;;;;30.13;25.92;;;;;;;-146.18;100.00;67994.34;9983861;29;20111;-67
2021/04/29 12:38:31;;;;;;;29.75;25.42;;;;;;;-146.18;100.00;67994.34;9992595;29;20059;-67
2021/04/29 12:43:27;;;;;;;32.38;25.15;;;;;;;-146.18;100.00;67994.34;9988092;29;20041;-67
2021/04/29 12:48:36;;;;;;;28.33;22.45;;;;;;;-146.18;100.00;67994.34;9990722;29;20048;-66
2021/04/29 12:53:33;;;;;;;30.55;23.27;;;;;;;-146.18;100.00;67994.34;9986904;29;20051;-66
2021/04/29 12:58:32;;;;;;;31.13;25.88;;;;;;;-146.18;100.00;67994.34;9986348;29;20063;-65
2021/04/29 13:03:36;;;;;;;30.20;23.00;;;;;;;-146.18;100.00;67994.34;9990668;29;20040;-66
2021/04/29 13:09:00;;;;;;;31.90;26.92;;;;;;;-146.18;100.00;67994.34;9978389;29;20533;-66
2021/04/29 13:14:09;;;;;;;29.02;23.02;;;;;;;-146.18;100.00;67994.34;9991561;29;20048;-66
2021/04/29 13:19:06;;;;;;;34.30;25.38;;;;;;;-146.18;100.00;67994.34;9990824;29;20525;-66
2021/04/29 13:24:03;;;;;;;30.55;25.60;;;;;;;-146.18;100.00;67994.34;9989501;29;20048;-67
2021/04/29 13:29:00;;;;;;;30.85;24.65;;;;;;;-146.18;100.00;67994.34;9988123;29;20192;-66
2021/04/29 13:34:02;;;;;;;30.45;24.30;;;;;;;-146.18;100.00;67994.34;9986580;29;20051;-65
2021/04/29 13:38:58;;;;;;;30.00;24.13;;;;;;;-146.18;100.00;67994.34;9988544;29;20537;-66
2021/04/29 13:43:54;;;;;;;30.55;24.85;;;;;;;-146.18;100.00;67994.34;9988488;29;20048;-65
2021/04/29 13:48:50;;;;;;;26.67;22.45;;;;;;;-146.18;100.00;67994.34;9988251;29;20047;-65
2021/04/29 13:53:46;;;;;;;32.72;25.75;;;;;;;-146.18;100.00;67994.34;9987982;29;20140;-65
2021/04/29 13:58:42;;;;;;;29.45;23.67;;;;;;;-146.18;100.00;67994.34;9989045;29;20052;-66
2021/04/29 14:03:39;;;;;;;29.33;22.45;;;;;;;-146.18;100.00;67994.34;9984126;29;20044;-64
2021/04/29 14:08:36;;;;;;;30.77;24.23;;;;;;;-146.18;100.00;67994.34;9980761;29;20052;-67
2021/04/29 14:13:32;;;;;;;28.20;21.73;;;;;;;-146.18;100.00;67994.34;9990249;29;20068;-65
2021/04/29 14:18:28;;;;;;;28.30;20.33;;;;;;;-146.18;100.00;67994.34;9974089;29;20390;-65
2021/04/29 14:23:25;;;;;;;26.00;19.60;;;;;;;-146.18;100.00;67994.34;9985582;29;20100;-69
2021/04/29 14:28:21;;;;;;;24.15;17.23;;;;;;;-146.18;100.00;67994.34;9986469;29;20099;-66
2021/04/29 14:33:18;;;;;;;20.10;17.02;;;;;;;-146.18;100.00;67994.34;9989149;29;20056;-67
2021/04/29 14:38:15;;;;;;;21.95;17.30;;;;;;;-146.18;100.00;67994.34;9980799;29;20143;-67
2021/04/29 14:43:11;;;;;;;21.98;19.17;;;;;;;-146.18;100.00;67994.34;9985414;29;20147;-67
2021/04/29 14:48:10;;;;;;;21.15;16.65;;;;;;;-146.18;100.00;67994.34;9989153;29;20052;-68
2021/04/29 14:53:08;;;;;;;18.33;14.43;;;;;;;-146.18;100.00;67994.34;9986783;29;20111;-66
2021/04/29 14:58:05;;;;;;;17.85;15.18;;;;;;;-146.18;100.00;67994.34;9982904;29;20103;-66
2021/04/29 15:03:04;;;;;;;20.35;16.10;;;;;;;-146.18;100.00;67994.34;9976601;29;20108;-66
2021/04/29 15:08:00;;;;;;;19.00;15.52;;;;;;;-146.18;100.00;67994.34;9979436;29;20107;-68
2021/04/29 15:12:57;;;;;;;17.30;14.80;;;;;;;-146.18;100.00;67994.34;9987103;29;20491;-68
2021/04/29 15:17:54;;;;;;;20.45;13.77;;;;;;;-146.18;100.00;67994.34;9985752;29;20048;-67
2021/04/29 15:22:50;;;;;;;16.58;13.25;;;;;;;-146.18;100.00;67994.34;9984545;29;20720;-67
2021/04/29 15:27:46;;;;;;;16.98;12.48;;;;;;;-146.18;100.00;67994.34;9985065;29;20048;-67
2021/04/29 15:32:43;;;;;;;16.30;12.35;;;;;;;-146.18;100.00;67994.34;9985634;29;20494;-67
2021/04/29 15:37:40;;;;;;;16.55;12.60;;;;;;;-146.18;100.00;67994.34;9988386;29;20379;-67
2021/04/29 15:42:37;;;;;;;16.00;12.68;;;;;;;-146.18;100.00;67994.34;9981618;29;20561;-66
2021/04/29 15:47:33;;;;;;;17.67;12.85;;;;;;;-146.18;100.00;67994.34;9986567;29;20044;-68
2021/04/29 15:52:30;;;;;;;19.40;12.20;;;;;;;-146.18;100.00;67994.34;9981520;29;20400;-71
2021/04/29 15:57:27;;;;;;;13.30;11.43;;;;;;;-146.18;100.00;67994.34;9984454;29;20701;-68
2021/04/29 16:02:23;;;;;;;16.48;12.23;;;;;;;-146.18;100.00;67994.34;9981775;29;20507;-66
2021/04/29 16:07:19;;;;;;;13.50;10.93;;;;;;;-146.18;100.00;67994.34;9982307;29;20048;-65
2021/04/29 16:12:15;;;;;;;15.85;11.93;;;;;;;-146.18;100.00;67994.34;9971501;29;20139;-67
2021/04/29 16:17:11;;;;;;;15.32;11.70;;;;;;;-146.18;100.00;67994.34;9973197;29;20127;-67
2021/04/29 16:22:07;;;;;;;13.90;11.45;;;;;;;-146.18;100.00;67994.34;9987119;29;20554;-68
2021/04/29 16:27:03;;;;;;;18.15;13.27;;;;;;;-146.18;100.00;67994.34;9985433;29;20052;-68
2021/04/29 16:32:00;;;;;;;15.52;12.25;;;;;;;-146.18;100.00;67994.34;9985457;29;20044;-68
2021/04/29 16:36:56;;;;;;;15.10;11.23;;;;;;;-146.18;100.00;67994.34;9988888;29;20079;-67
2021/04/29 16:41:52;;;;;;;16.92;13.88;;;;;;;-146.18;100.00;67994.34;9979623;29;20566;-67
2021/04/29 16:46:48;;;;;;;13.95;10.75;;;;;;;-146.18;100.00;67994.34;9982229;29;20048;-67
2021/04/29 16:51:44;;;;;;;13.35;10.15;;;;;;;-146.18;100.00;67994.34;9980541;29;20510;-66
2021/04/29 16:56:40;;;;;;;14.98;12.00;;;;;;;-146.18;100.00;67994.34;9984718;29;20048;-66
2021/04/29 17:01:36;;;;;;;17.13;12.25;;;;;;;-146.18;100.00;67994.34;9979686;29;20058;-67
2021/04/29 17:06:34;;;;;;;18.23;11.88;;;;;;;-146.18;100.00;67994.34;9983041;29;20390;-66
2021/04/29 17:11:31;;;;;;;14.27;12.15;;;;;;;-146.18;100.00;67994.34;9985595;29;20606;-67
2021/04/29 17:16:27;;;;;;;16.30;11.05;;;;;;;-146.18;100.00;67994.34;9976912;29;20131;-68
2021/04/29 17:21:24;;;;;;;16.05;11.63;;;;;;;-146.18;100.00;67994.34;9960461;29;20048;-67
2021/04/29 17:26:20;;;;;;;14.32;10.60;;;;;;;-146.18;100.00;67994.34;9954483;29;20072;-68
2021/04/29 17:31:16;;;;;;;13.05;10.07;;;;;;;-146.18;100.00;67994.34;9972697;29;20060;-68
2021/04/29 17:36:12;;;;;;;13.18;11.05;;;;;;;-146.18;100.00;67994.34;9977834;29;20056;-68
2021/04/29 17:41:27;;;;;;;14.18;11.60;;;;;;;-146.18;100.00;67994.34;9984861;29;20704;-68
2021/04/29 17:46:23;;;;;;;17.38;12.32;;;;;;;-146.18;100.00;67994.34;9980108;29;20110;-67
2021/04/29 17:51:20;;;;;;;16.55;12.38;;;;;;;-146.18;100.00;67994.34;9978357;29;20179;-67
2021/04/29 17:56:17;;;;;;;17.33;13.60;;;;;;;-146.18;100.00;67994.34;9961383;29;20053;-66
2021/04/29 18:01:13;;;;;;;16.15;11.35;;;;;;;-146.18;100.00;67994.34;9973257;29;20124;-66
2021/04/29 18:06:09;;;;;;;14.77;12.35;;;;;;;-146.18;100.00;67994.34;9976148;29;20046;-65
2021/04/29 18:11:06;;;;;;;18.33;12.88;;;;;;;-146.18;100.00;67994.34;9977241;29;20491;-66
2021/04/29 18:16:02;;;;;;;16.65;12.77;;;;;;;-146.18;100.00;67994.34;9972426;29;20064;-66
2021/04/29 18:21:01;;;;;;;15.98;12.45;;;;;;;-146.18;100.00;67994.34;9986250;29;20138;-66
2021/04/29 18:25:57;;;;;;;16.35;12.77;;;;;;;-146.18;100.00;67994.34;9986551;29;20067;-66
2021/04/29 18:30:54;;;;;;;16.85;12.45;;;;;;;-146.18;100.00;67994.34;9975549;29;20100;-67
2021/04/29 18:35:51;;;;;;;23.17;13.85;;;;;;;-146.18;100.00;67994.34;9976999;29;20100;-68
2021/04/29 18:40:47;;;;;;;21.92;14.70;;;;;;;-146.18;100.00;67994.34;9979414;29;20514;-66
2021/04/29 18:45:49;;;;;;;18.63;15.32;;;;;;;-146.18;100.00;67994.34;9975802;29;20533;-65
2021/04/29 18:50:46;;;;;;;18.95;15.93;;;;;;;-146.18;100.00;67994.34;9971294;29;20132;-66
2021/04/29 18:55:43;;;;;;;18.75;16.40;;;;;;;-146.18;100.00;67994.34;9976308;29;20111;-66
2021/04/29 19:00:42;;;;;;;22.02;17.92;;;;;;;-146.18;100.00;67994.34;9979240;29;20063;-66
2021/04/29 19:05:38;;;;;;;20.50;16.17;;;;;;;-146.18;100.00;67994.34;9980253;29;20087;-66
2021/04/29 19:10:35;;;;;;;22.50;18.50;;;;;;;-146.18;100.00;67994.34;9978149;29;20052;-65
2021/04/29 19:15:31;;;;;;;20.05;17.42;;;;;;;-146.18;100.00;67994.34;9978932;29;20479;-67
2021/04/29 19:20:28;;;;;;;19.65;16.17;;;;;;;-146.18;100.00;67994.34;9976794;29;20072;-65
2021/04/29 19:25:24;;;;;;;20.77;17.35;;;;;;;-146.18;100.00;67994.34;9975003;29;20052;-64
2021/04/29 19:30:22;;;;;;;23.27;18.25;;;;;;;-146.18;100.00;67994.34;9981534;29;20059;-65
2021/04/29 19:35:19;;;;;;;21.58;18.33;;;;;;;-146.18;100.00;67994.34;9970634;29;20076;-64
2021/04/29 19:40:16;;;;;;;23.17;18.50;;;;;;;-146.18;100.00;67994.34;9981554;29;20076;-65
2021/04/29 19:45:14;;;;;;;22.75;20.15;;;;;;;-146.18;100.00;67994.34;9977069;29;20162;-65
2021/04/29 19:50:12;;;;;;;21.92;17.48;;;;;;;-146.18;100.00;67994.34;9979952;29;20506;-65
2021/04/29 19:55:09;;;;;;;21.75;17.88;;;;;;;-146.18;100.00;67994.34;9985572;29;20079;-63
2021/04/29 20:00:07;;;;;;;23.80;20.83;;;;;;;-146.18;100.00;67994.34;9972993;29;20061;-65
2021/04/29 20:05:05;;;;;;;27.20;21.88;;;;;;;-146.18;100.00;67994.34;9984821;29;20064;-61
2021/04/29 20:10:03;;;;;;;34.30;26.35;;;;;;;-146.18;100.00;67994.34;9985689;29;20107;-64
2021/04/29 20:14:59;;;;;;;32.40;26.50;;;;;;;-146.18;100.00;67994.34;9988043;29;20848;-63
2021/04/29 20:19:55;;;;;;;33.28;26.67;;;;;;;-146.18;100.00;67994.34;9989499;29;20107;-69
2021/04/29 20:24:51;;;;;;;36.38;29.95;;;;;;;-146.18;100.00;67994.34;9981829;29;20954;-67
2021/04/29 20:29:49;;;;;;;39.53;30.88;;;;;;;-146.18;100.00;67994.34;9978613;29;20048;-66
2021/04/29 20:34:45;;;;;;;41.40;31.30;;;;;;;-146.18;100.00;67994.34;9986908;29;20040;-67
2021/04/29 20:39:42;;;;;;;36.28;27.20;;;;;;;-146.18;100.00;67994.34;9982155;29;20044;-65
2021/04/29 20:44:38;;;;;;;37.35;27.85;;;;;;;-146.18;100.00;67994.34;9974824;29;20075;-65
2021/04/29 20:49:34;;;;;;;37.58;30.70;;;;;;;-146.18;100.00;67994.34;9976536;29;20060;-65
2021/04/29 20:54:30;;;;;;;40.53;33.85;;;;;;;-146.18;100.00;67994.34;9979700;29;20044;-66
2021/04/29 20:59:26;;;;;;;40.10;30.92;;;;;;;-146.18;100.00;67994.34;9977849;29;20455;-66
2021/04/29 21:04:22;;;;;;;40.83;31.50;;;;;;;-146.18;100.00;67994.34;9986423;29;20044;-67
2021/04/29 21:09:18;;;;;;;40.88;33.38;;;;;;;-146.18;100.00;67994.34;9981259;29;20507;-67
2021/04/29 21:14:14;;;;;;;42.55;33.95;;;;;;;-146.18;100.00;67994.34;9980083;29;20088;-67
2021/04/29 21:19:11;;;;;;;44.20;34.42;;;;;;;-146.18;100.00;67994.34;9979383;29;20064;-66
2021/04/29 21:24:08;;;;;;;42.75;34.40;;;;;;;-146.18;100.00;67994.34;9983192;29;20112;-68
2021/04/29 21:29:04;;;;;;;41.00;32.72;;;;;;;-146.18;100.00;67994.34;9969293;29;20471;-66
2021/04/29 21:34:00;;;;;;;40.08;32.67;;;;;;;-146.18;100.00;67994.34;9986575;29;20044;-66
2021/04/29 21:38:58;;;;;;;45.63;35.25;;;;;;;-146.18;100.00;67994.34;9978824;29;20499;-70
2021/04/29 21:43:56;;;;;;;39.28;30.90;;;;;;;-146.18;100.00;67994.34;9987198;29;20044;-69
2021/04/29 21:48:54;;;;;;;38.75;29.58;;;;;;;-146.18;100.00;67994.34;9986439;29;20052;-66
2021/04/29 21:53:50;;;;;;;34.55;27.75;;;;;;;-146.18;100.00;67994.34;9985128;29;20047;-67
2021/04/29 21:58:46;;;;;;;35.63;26.80;;;;;;;-146.18;100.00;67994.34;9984358;29;20104;-65
2021/04/29 22:03:42;;;;;;;36.10;27.90;;;;;;;-146.18;100.00;67994.34;9982620;29;20571;-67